sensor_id;sensor_type;location;lat;lon;timestamp;P1;durP1;ratioP1;P2;durP2;ratioP2
68987;SDS011;56038;46.080;11.116;2023-04-01T00:03:46;5.75;;;5.05;;
68987;SDS011;56038;46.080;11.116;2023-04-01T00:08:54;7.88;;;5.30;;
68987;SDS011;56038;46.080;11.116;2023-04-01T00:14:03;8.13;;;5.07;;
68987;SDS011;56038;46.080;11.116;2023-04-01T00:19:04;6.13;;;4.82;;
68987;SDS011;56038;46.080;11.116;2023-04-01T00:24:08;6.50;;;4.88;;
68987;SDS011;56038;46.080;11.116;2023-04-01T00:29:09;6.55;;;4.97;;
68987;SDS011;56038;46.080;11.116;2023-04-01T00:34:11;6.75;;;5.10;;
68987;SDS011;56038;46.080;11.116;2023-04-01T00:39:15;7.25;;;5.43;;
68987;SDS011;56038;46.080;11.116;2023-04-01T00:44:18;7.45;;;6.32;;
68987;SDS011;56038;46.080;11.116;2023-04-01T00:49:23;6.90;;;5.65;;
68987;SDS011;56038;46.080;11.116;2023-04-01T00:54:30;4.80;;;4.28;;
68987;SDS011;56038;46.080;11.116;2023-04-01T00:59:33;7.40;;;5.78;;
68987;SDS011;56038;46.080;11.116;2023-04-01T01:04:38;5.87;;;4.43;;
68987;SDS011;56038;46.080;11.116;2023-04-01T01:09:47;4.68;;;3.97;;
68987;SDS011;56038;46.080;11.116;2023-04-01T01:15:06;3.95;;;3.33;;
68987;SDS011;56038;46.080;11.116;2023-04-01T01:26:02;3.45;;;2.92;;
68987;SDS011;56038;46.080;11.116;2023-04-01T01:31:20;3.42;;;3.13;;
68987;SDS011;56038;46.080;11.116;2023-04-01T01:36:27;4.75;;;4.05;;
68987;SDS011;56038;46.080;11.116;2023-04-01T01:41:34;4.80;;;4.35;;
68987;SDS011;56038;46.080;11.116;2023-04-01T01:46:39;6.25;;;4.38;;
68987;SDS011;56038;46.080;11.116;2023-04-01T01:51:44;5.40;;;4.30;;
68987;SDS011;56038;46.080;11.116;2023-04-01T01:56:47;7.32;;;4.60;;
68987;SDS011;56038;46.080;11.116;2023-04-01T02:01:52;6.80;;;4.05;;
68987;SDS011;56038;46.080;11.116;2023-04-01T02:06:59;4.93;;;3.63;;
68987;SDS011;56038;46.080;11.116;2023-04-01T02:12:05;4.47;;;3.53;;
68987;SDS011;56038;46.080;11.116;2023-04-01T02:17:09;4.55;;;3.40;;
68987;SDS011;56038;46.080;11.116;2023-04-01T02:22:16;3.42;;;3.13;;
68987;SDS011;56038;46.080;11.116;2023-04-01T02:27:21;4.28;;;3.65;;
68987;SDS011;56038;46.080;11.116;2023-04-01T02:32:23;4.65;;;3.50;;
68987;SDS011;56038;46.080;11.116;2023-04-01T02:37:28;4.60;;;3.40;;
68987;SDS011;56038;46.080;11.116;2023-04-01T02:42:30;4.35;;;3.95;;
68987;SDS011;56038;46.080;11.116;2023-04-01T02:47:32;4.03;;;3.63;;
68987;SDS011;56038;46.080;11.116;2023-04-01T02:52:35;3.17;;;2.80;;
68987;SDS011;56038;46.080;11.116;2023-04-01T02:57:37;4.40;;;3.78;;
68987;SDS011;56038;46.080;11.116;2023-04-01T03:02:39;3.20;;;2.88;;
68987;SDS011;56038;46.080;11.116;2023-04-01T03:07:42;4.28;;;2.97;;
68987;SDS011;56038;46.080;11.116;2023-04-01T03:12:44;3.38;;;2.75;;
68987;SDS011;56038;46.080;11.116;2023-04-01T03:17:46;2.92;;;2.58;;
68987;SDS011;56038;46.080;11.116;2023-04-01T03:22:49;2.00;;;1.90;;
68987;SDS011;56038;46.080;11.116;2023-04-01T03:27:51;2.95;;;2.00;;
68987;SDS011;56038;46.080;11.116;2023-04-01T03:32:53;2.47;;;2.28;;
68987;SDS011;56038;46.080;11.116;2023-04-01T03:37:56;2.47;;;1.88;;
68987;SDS011;56038;46.080;11.116;2023-04-01T03:42:58;1.70;;;1.60;;
68987;SDS011;56038;46.080;11.116;2023-04-01T03:48:00;2.42;;;1.90;;
68987;SDS011;56038;46.080;11.116;2023-04-01T03:53:03;1.80;;;1.70;;
68987;SDS011;56038;46.080;11.116;2023-04-01T03:58:05;1.70;;;1.50;;
68987;SDS011;56038;46.080;11.116;2023-04-01T04:03:08;1.85;;;1.63;;
68987;SDS011;56038;46.080;11.116;2023-04-01T04:08:11;2.38;;;1.80;;
68987;SDS011;56038;46.080;11.116;2023-04-01T04:13:13;2.17;;;1.90;;
68987;SDS011;56038;46.080;11.116;2023-04-01T04:18:15;2.50;;;2.30;;
68987;SDS011;56038;46.080;11.116;2023-04-01T04:23:18;2.20;;;2.10;;
68987;SDS011;56038;46.080;11.116;2023-04-01T04:28:20;1.83;;;1.70;;
68987;SDS011;56038;46.080;11.116;2023-04-01T04:33:22;3.05;;;2.28;;
68987;SDS011;56038;46.080;11.116;2023-04-01T04:38:25;1.83;;;1.73;;
68987;SDS011;56038;46.080;11.116;2023-04-01T04:43:28;3.22;;;1.60;;
68987;SDS011;56038;46.080;11.116;2023-04-01T04:48:29;2.17;;;1.60;;
68987;SDS011;56038;46.080;11.116;2023-04-01T04:53:32;1.67;;;1.58;;
68987;SDS011;56038;46.080;11.116;2023-04-01T04:58:34;1.70;;;1.60;;
68987;SDS011;56038;46.080;11.116;2023-04-01T05:03:36;1.75;;;1.65;;
68987;SDS011;56038;46.080;11.116;2023-04-01T05:08:40;2.30;;;1.70;;
68987;SDS011;56038;46.080;11.116;2023-04-01T05:13:43;1.55;;;1.45;;
68987;SDS011;56038;46.080;11.116;2023-04-01T05:18:45;1.42;;;1.33;;
68987;SDS011;56038;46.080;11.116;2023-04-01T05:23:49;2.30;;;1.50;;
68987;SDS011;56038;46.080;11.116;2023-04-01T05:28:51;3.05;;;1.60;;
68987;SDS011;56038;46.080;11.116;2023-04-01T05:33:53;2.78;;;1.98;;
68987;SDS011;56038;46.080;11.116;2023-04-01T05:38:56;4.55;;;2.30;;
68987;SDS011;56038;46.080;11.116;2023-04-01T05:43:58;2.92;;;2.10;;
68987;SDS011;56038;46.080;11.116;2023-04-01T05:48:59;4.13;;;2.20;;
68987;SDS011;56038;46.080;11.116;2023-04-01T05:54:03;2.42;;;2.00;;
68987;SDS011;56038;46.080;11.116;2023-04-01T05:59:05;1.52;;;1.35;;
68987;SDS011;56038;46.080;11.116;2023-04-01T06:04:09;1.73;;;1.55;;
68987;SDS011;56038;46.080;11.116;2023-04-01T06:09:16;2.13;;;1.50;;
68987;SDS011;56038;46.080;11.116;2023-04-01T06:14:22;1.77;;;1.67;;
68987;SDS011;56038;46.080;11.116;2023-04-01T06:19:33;1.42;;;1.20;;
68987;SDS011;56038;46.080;11.116;2023-04-01T06:24:42;1.92;;;1.40;;
68987;SDS011;56038;46.080;11.116;2023-04-01T06:29:56;3.60;;;1.55;;
68987;SDS011;56038;46.080;11.116;2023-04-01T06:35:16;1.75;;;1.65;;
68987;SDS011;56038;46.080;11.116;2023-04-01T06:46:05;6.68;;;4.30;;
68987;SDS011;56038;46.080;11.116;2023-04-01T06:51:17;2.05;;;1.85;;
68987;SDS011;56038;46.080;11.116;2023-04-01T06:56:30;2.35;;;2.15;;
68987;SDS011;56038;46.080;11.116;2023-04-01T07:01:35;2.15;;;1.95;;
68987;SDS011;56038;46.080;11.116;2023-04-01T07:06:43;3.17;;;2.42;;
68987;SDS011;56038;46.080;11.116;2023-04-01T07:11:50;3.33;;;2.65;;
68987;SDS011;56038;46.080;11.116;2023-04-01T07:16:56;3.53;;;2.85;;
68987;SDS011;56038;46.080;11.116;2023-04-01T07:22:09;2.47;;;2.28;;
68987;SDS011;56038;46.080;11.116;2023-04-01T07:27:30;2.60;;;2.40;;
68987;SDS011;56038;46.080;11.116;2023-04-01T07:32:33;4.75;;;3.90;;
68987;SDS011;56038;46.080;11.116;2023-04-01T07:37:46;2.90;;;2.60;;
68987;SDS011;56038;46.080;11.116;2023-04-01T07:43:10;3.33;;;2.50;;
68987;SDS011;56038;46.080;11.116;2023-04-01T07:48:25;2.78;;;2.50;;
68987;SDS011;56038;46.080;11.116;2023-04-01T07:53:33;2.47;;;2.20;;
68987;SDS011;56038;46.080;11.116;2023-04-01T07:58:44;2.42;;;2.22;;
68987;SDS011;56038;46.080;11.116;2023-04-01T08:04:01;3.00;;;2.70;;
68987;SDS011;56038;46.080;11.116;2023-04-01T08:09:20;2.22;;;2.08;;
68987;SDS011;56038;46.080;11.116;2023-04-01T08:14:30;2.95;;;2.22;;
68987;SDS011;56038;46.080;11.116;2023-04-01T08:19:50;2.67;;;2.33;;
68987;SDS011;56038;46.080;11.116;2023-04-01T08:25:04;2.88;;;2.58;;
68987;SDS011;56038;46.080;11.116;2023-04-01T08:30:16;2.90;;;2.63;;
68987;SDS011;56038;46.080;11.116;2023-04-01T08:35:22;3.00;;;2.72;;
68987;SDS011;56038;46.080;11.116;2023-04-01T08:40:34;2.55;;;2.35;;
68987;SDS011;56038;46.080;11.116;2023-04-01T08:45:59;3.33;;;2.75;;
68987;SDS011;56038;46.080;11.116;2023-04-01T08:51:37;3.65;;;2.63;;
68987;SDS011;56038;46.080;11.116;2023-04-01T08:57:08;2.95;;;2.45;;
68987;SDS011;56038;46.080;11.116;2023-04-01T09:07:55;2.72;;;2.45;;
68987;SDS011;56038;46.080;11.116;2023-04-01T09:13:07;3.63;;;2.45;;
68987;SDS011;56038;46.080;11.116;2023-04-01T09:18:30;2.95;;;2.67;;
68987;SDS011;56038;46.080;11.116;2023-04-01T09:24:03;2.25;;;2.08;;
68987;SDS011;56038;46.080;11.116;2023-04-01T09:29:31;2.88;;;2.10;;
68987;SDS011;56038;46.080;11.116;2023-04-01T09:34:55;2.15;;;1.90;;
68987;SDS011;56038;46.080;11.116;2023-04-01T09:40:14;2.72;;;2.38;;
68987;SDS011;56038;46.080;11.116;2023-04-01T09:45:23;4.18;;;1.85;;
68987;SDS011;56038;46.080;11.116;2023-04-01T09:50:43;1.83;;;1.73;;
68987;SDS011;56038;46.080;11.116;2023-04-01T10:01:36;2.08;;;1.88;;
68987;SDS011;56038;46.080;11.116;2023-04-01T10:06:52;2.17;;;1.98;;
68987;SDS011;56038;46.080;11.116;2023-04-01T10:12:32;2.20;;;1.98;;
68987;SDS011;56038;46.080;11.116;2023-04-01T10:23:22;2.03;;;1.40;;
68987;SDS011;56038;46.080;11.116;2023-04-01T10:28:55;2.60;;;1.70;;
68987;SDS011;56038;46.080;11.116;2023-04-01T10:34:18;2.80;;;1.70;;
68987;SDS011;56038;46.080;11.116;2023-04-01T10:39:56;4.65;;;1.35;;
68987;SDS011;56038;46.080;11.116;2023-04-01T10:45:25;2.05;;;1.50;;
68987;SDS011;56038;46.080;11.116;2023-04-01T10:50:59;0.98;;;0.98;;
68987;SDS011;56038;46.080;11.116;2023-04-01T10:56:29;1.27;;;1.10;;
68987;SDS011;56038;46.080;11.116;2023-04-01T11:13:04;1.17;;;1.08;;
68987;SDS011;56038;46.080;11.116;2023-04-01T11:18:47;1.83;;;0.90;;
68987;SDS011;56038;46.080;11.116;2023-04-01T11:24:26;0.98;;;0.98;;
68987;SDS011;56038;46.080;11.116;2023-04-01T11:29:54;0.60;;;0.60;;
68987;SDS011;56038;46.080;11.116;2023-04-01T11:35:15;0.70;;;0.70;;
68987;SDS011;56038;46.080;11.116;2023-04-01T11:40:31;3.00;;;1.77;;
68987;SDS011;56038;46.080;11.116;2023-04-01T11:45:41;1.50;;;1.30;;
68987;SDS011;56038;46.080;11.116;2023-04-01T11:50:58;0.93;;;0.82;;
68987;SDS011;56038;46.080;11.116;2023-04-01T11:56:13;0.75;;;0.60;;
68987;SDS011;56038;46.080;11.116;2023-04-01T12:01:37;0.50;;;0.50;;
68987;SDS011;56038;46.080;11.116;2023-04-01T12:06:51;0.43;;;0.40;;
68987;SDS011;56038;46.080;11.116;2023-04-01T12:12:06;1.23;;;0.52;;
68987;SDS011;56038;46.080;11.116;2023-04-01T12:17:25;0.90;;;0.47;;
68987;SDS011;56038;46.080;11.116;2023-04-01T12:22:39;0.35;;;0.32;;
68987;SDS011;56038;46.080;11.116;2023-04-01T12:27:53;0.98;;;0.57;;
68987;SDS011;56038;46.080;11.116;2023-04-01T12:38:46;0.50;;;0.40;;
68987;SDS011;56038;46.080;11.116;2023-04-01T12:44:05;3.50;;;0.68;;
68987;SDS011;56038;46.080;11.116;2023-04-01T12:49:31;0.10;;;0.10;;
68987;SDS011;56038;46.080;11.116;2023-04-01T13:00:32;0.38;;;0.20;;
68987;SDS011;56038;46.080;11.116;2023-04-01T13:06:03;0.40;;;0.40;;
68987;SDS011;56038;46.080;11.116;2023-04-01T13:11:21;0.20;;;0.20;;
68987;SDS011;56038;46.080;11.116;2023-04-01T13:16:33;0.45;;;0.30;;
68987;SDS011;56038;46.080;11.116;2023-04-01T13:21:44;0.70;;;0.40;;
68987;SDS011;56038;46.080;11.116;2023-04-01T13:26:57;0.50;;;0.40;;
68987;SDS011;56038;46.080;11.116;2023-04-01T13:32:06;0.20;;;0.20;;
68987;SDS011;56038;46.080;11.116;2023-04-01T13:37:27;0.17;;;0.17;;
68987;SDS011;56038;46.080;11.116;2023-04-01T13:42:40;0.90;;;0.28;;
68987;SDS011;56038;46.080;11.116;2023-04-01T13:47:59;0.20;;;0.20;;
68987;SDS011;56038;46.080;11.116;2023-04-01T13:53:31;0.22;;;0.20;;
68987;SDS011;56038;46.080;11.116;2023-04-01T13:58:55;0.63;;;0.30;;
68987;SDS011;56038;46.080;11.116;2023-04-01T14:09:39;1.48;;;0.50;;
68987;SDS011;56038;46.080;11.116;2023-04-01T14:14:51;0.50;;;0.40;;
68987;SDS011;56038;46.080;11.116;2023-04-01T14:20:04;1.10;;;0.67;;
68987;SDS011;56038;46.080;11.116;2023-04-01T14:25:32;2.75;;;2.10;;
68987;SDS011;56038;46.080;11.116;2023-04-01T14:42:02;1.58;;;0.70;;
68987;SDS011;56038;46.080;11.116;2023-04-01T14:47:22;0.50;;;0.40;;
68987;SDS011;56038;46.080;11.116;2023-04-01T14:52:44;0.32;;;0.32;;
68987;SDS011;56038;46.080;11.116;2023-04-01T14:58:04;1.27;;;0.40;;
68987;SDS011;56038;46.080;11.116;2023-04-01T15:03:12;0.70;;;0.60;;
68987;SDS011;56038;46.080;11.116;2023-04-01T15:08:21;0.63;;;0.50;;
68987;SDS011;56038;46.080;11.116;2023-04-01T15:13:37;1.38;;;0.52;;
68987;SDS011;56038;46.080;11.116;2023-04-01T15:19:06;1.20;;;0.70;;
68987;SDS011;56038;46.080;11.116;2023-04-01T15:24:18;1.10;;;0.93;;
68987;SDS011;56038;46.080;11.116;2023-04-01T15:29:28;3.42;;;0.70;;
68987;SDS011;56038;46.080;11.116;2023-04-01T15:34:42;0.70;;;0.50;;
68987;SDS011;56038;46.080;11.116;2023-04-01T15:39:58;0.68;;;0.68;;
68987;SDS011;56038;46.080;11.116;2023-04-01T15:45:16;1.75;;;0.63;;
68987;SDS011;56038;46.080;11.116;2023-04-01T15:50:36;0.52;;;0.52;;
68987;SDS011;56038;46.080;11.116;2023-04-01T15:55:56;0.85;;;0.68;;
68987;SDS011;56038;46.080;11.116;2023-04-01T16:01:05;1.13;;;0.82;;
68987;SDS011;56038;46.080;11.116;2023-04-01T16:06:26;1.08;;;0.80;;
68987;SDS011;56038;46.080;11.116;2023-04-01T16:11:52;0.68;;;0.68;;
68987;SDS011;56038;46.080;11.116;2023-04-01T16:17:04;0.35;;;0.35;;
68987;SDS011;56038;46.080;11.116;2023-04-01T16:22:19;3.03;;;0.60;;
68987;SDS011;56038;46.080;11.116;2023-04-01T16:27:27;0.60;;;0.50;;
68987;SDS011;56038;46.080;11.116;2023-04-01T16:32:38;0.50;;;0.50;;
68987;SDS011;56038;46.080;11.116;2023-04-01T16:37:46;0.30;;;0.30;;
68987;SDS011;56038;46.080;11.116;2023-04-01T16:42:52;0.68;;;0.40;;
68987;SDS011;56038;46.080;11.116;2023-04-01T16:48:00;0.75;;;0.45;;
68987;SDS011;56038;46.080;11.116;2023-04-01T16:53:09;0.80;;;0.60;;
68987;SDS011;56038;46.080;11.116;2023-04-01T16:58:18;0.95;;;0.55;;
68987;SDS011;56038;46.080;11.116;2023-04-01T17:03:28;1.00;;;0.82;;
68987;SDS011;56038;46.080;11.116;2023-04-01T17:08:39;0.65;;;0.52;;
68987;SDS011;56038;46.080;11.116;2023-04-01T17:13:57;1.00;;;0.43;;
68987;SDS011;56038;46.080;11.116;2023-04-01T17:19:12;1.25;;;0.70;;
68987;SDS011;56038;46.080;11.116;2023-04-01T17:24:28;1.13;;;0.77;;
68987;SDS011;56038;46.080;11.116;2023-04-01T17:29:46;0.80;;;0.60;;
68987;SDS011;56038;46.080;11.116;2023-04-01T17:35:05;1.27;;;0.70;;
68987;SDS011;56038;46.080;11.116;2023-04-01T17:40:20;0.68;;;0.50;;
68987;SDS011;56038;46.080;11.116;2023-04-01T17:45:37;0.63;;;0.40;;
68987;SDS011;56038;46.080;11.116;2023-04-01T17:50:53;0.65;;;0.30;;
68987;SDS011;56038;46.080;11.116;2023-04-01T17:56:08;0.40;;;0.40;;
68987;SDS011;56038;46.080;11.116;2023-04-01T18:01:25;0.50;;;0.50;;
68987;SDS011;56038;46.080;11.116;2023-04-01T18:06:39;0.70;;;0.70;;
68987;SDS011;56038;46.080;11.116;2023-04-01T18:12:05;0.60;;;0.60;;
68987;SDS011;56038;46.080;11.116;2023-04-01T18:17:23;0.52;;;0.52;;
68987;SDS011;56038;46.080;11.116;2023-04-01T18:22:28;1.07;;;0.67;;
68987;SDS011;56038;46.080;11.116;2023-04-01T18:27:37;0.70;;;0.50;;
68987;SDS011;56038;46.080;11.116;2023-04-01T18:32:44;0.60;;;0.57;;
68987;SDS011;56038;46.080;11.116;2023-04-01T18:37:54;0.57;;;0.40;;
68987;SDS011;56038;46.080;11.116;2023-04-01T18:43:04;0.70;;;0.60;;
68987;SDS011;56038;46.080;11.116;2023-04-01T18:48:15;1.80;;;0.95;;
68987;SDS011;56038;46.080;11.116;2023-04-01T18:53:38;1.20;;;1.10;;
68987;SDS011;56038;46.080;11.116;2023-04-01T18:58:45;1.65;;;1.27;;
68987;SDS011;56038;46.080;11.116;2023-04-01T19:03:56;1.17;;;1.08;;
68987;SDS011;56038;46.080;11.116;2023-04-01T19:09:17;1.50;;;1.20;;
68987;SDS011;56038;46.080;11.116;2023-04-01T19:14:23;1.20;;;0.90;;
68987;SDS011;56038;46.080;11.116;2023-04-01T19:19:38;1.17;;;1.05;;
68987;SDS011;56038;46.080;11.116;2023-04-01T19:35:53;1.58;;;1.00;;
68987;SDS011;56038;46.080;11.116;2023-04-01T19:41:07;1.13;;;1.05;;
68987;SDS011;56038;46.080;11.116;2023-04-01T19:46:25;2.17;;;0.90;;
68987;SDS011;56038;46.080;11.116;2023-04-01T19:51:35;1.80;;;1.48;;
68987;SDS011;56038;46.080;11.116;2023-04-01T19:56:43;1.50;;;1.40;;
68987;SDS011;56038;46.080;11.116;2023-04-01T20:01:50;2.25;;;1.27;;
68987;SDS011;56038;46.080;11.116;2023-04-01T20:06:55;2.08;;;1.50;;
68987;SDS011;56038;46.080;11.116;2023-04-01T20:12:05;2.05;;;1.58;;
68987;SDS011;56038;46.080;11.116;2023-04-01T20:17:18;1.17;;;1.08;;
68987;SDS011;56038;46.080;11.116;2023-04-01T20:22:24;1.00;;;0.77;;
68987;SDS011;56038;46.080;11.116;2023-04-01T20:27:37;2.40;;;0.95;;
68987;SDS011;56038;46.080;11.116;2023-04-01T20:32:54;0.60;;;0.60;;
68987;SDS011;56038;46.080;11.116;2023-04-01T20:38:16;0.70;;;0.60;;
68987;SDS011;56038;46.080;11.116;2023-04-01T20:49:03;0.95;;;0.80;;
68987;SDS011;56038;46.080;11.116;2023-04-01T20:54:29;1.38;;;1.10;;
68987;SDS011;56038;46.080;11.116;2023-04-01T20:59:50;0.70;;;0.70;;
68987;SDS011;56038;46.080;11.116;2023-04-01T21:05:21;1.33;;;0.90;;
68987;SDS011;56038;46.080;11.116;2023-04-01T21:10:40;0.93;;;0.80;;
68987;SDS011;56038;46.080;11.116;2023-04-01T21:15:50;1.45;;;0.95;;
68987;SDS011;56038;46.080;11.116;2023-04-01T21:21:12;1.85;;;0.77;;
68987;SDS011;56038;46.080;11.116;2023-04-01T21:26:35;0.60;;;0.60;;
68987;SDS011;56038;46.080;11.116;2023-04-01T21:31:52;1.58;;;0.60;;
68987;SDS011;56038;46.080;11.116;2023-04-01T21:37:17;2.15;;;1.02;;
68987;SDS011;56038;46.080;11.116;2023-04-01T21:42:32;1.48;;;0.82;;
68987;SDS011;56038;46.080;11.116;2023-04-01T21:48:03;1.05;;;1.05;;
68987;SDS011;56038;46.080;11.116;2023-04-01T22:05:20;0.88;;;0.50;;
68987;SDS011;56038;46.080;11.116;2023-04-01T22:10:29;0.68;;;0.60;;
68987;SDS011;56038;46.080;11.116;2023-04-01T22:15:45;1.77;;;0.82;;
68987;SDS011;56038;46.080;11.116;2023-04-01T22:20:57;1.13;;;0.73;;
68987;SDS011;56038;46.080;11.116;2023-04-01T22:26:09;0.80;;;0.70;;
68987;SDS011;56038;46.080;11.116;2023-04-01T22:31:17;0.63;;;0.63;;
68987;SDS011;56038;46.080;11.116;2023-04-01T22:36:30;0.55;;;0.55;;
68987;SDS011;56038;46.080;11.116;2023-04-01T22:41:40;0.55;;;0.55;;
68987;SDS011;56038;46.080;11.116;2023-04-01T22:46:53;0.45;;;0.45;;
68987;SDS011;56038;46.080;11.116;2023-04-01T22:52:05;1.15;;;0.70;;
68987;SDS011;56038;46.080;11.116;2023-04-01T22:57:14;0.95;;;0.60;;
68987;SDS011;56038;46.080;11.116;2023-04-01T23:02:33;0.40;;;0.40;;
68987;SDS011;56038;46.080;11.116;2023-04-01T23:07:43;0.40;;;0.40;;
68987;SDS011;56038;46.080;11.116;2023-04-01T23:12:53;0.40;;;0.40;;
68987;SDS011;56038;46.080;11.116;2023-04-01T23:18:02;0.57;;;0.50;;
68987;SDS011;56038;46.080;11.116;2023-04-01T23:23:17;0.93;;;0.40;;
68987;SDS011;56038;46.080;11.116;2023-04-01T23:33:49;1.42;;;0.52;;
68987;SDS011;56038;46.080;11.116;2023-04-01T23:38:56;0.60;;;0.60;;
68987;SDS011;56038;46.080;11.116;2023-04-01T23:44:05;0.90;;;0.50;;
68987;SDS011;56038;46.080;11.116;2023-04-01T23:49:11;0.52;;;0.45;;
68987;SDS011;56038;46.080;11.116;2023-04-01T23:54:18;0.50;;;0.50;;
68987;SDS011;56038;46.080;11.116;2023-04-01T23:59:27;0.50;;;0.35;;
